Flight Track Log - Related Links

Times and Time Zones

All times are in EDT time to prevent confusion due to time zone crossing. See the C-GAWM flight status page for this flight to view local times or setup timezone preferences in your user account.

Time Position Orientation Groundspeed Altitude Reporting Facility
EDT Latitude Longitude Course Direction KTS MPH feet Rate Location/Type
Fri 04:19:45 PM 51.6667 -100.5000 137° Southeast 190 219 9,000  Level Winnipeg Center
Fri 04:20:45 PM 51.6333 -100.4500 137° Southeast 190 219 9,000  Level Winnipeg Center
Fri 04:21:45 PM 51.6000 -100.3667 123° Southeast 190 219 9,000  Level Winnipeg Center
Fri 04:22:45 PM 51.5667 -100.3000 129° Southeast 190 219 9,000  Level Winnipeg Center
Fri 04:23:45 PM 51.5333 -100.2500 137° Southeast 190 219 9,000  Level Winnipeg Center
Fri 04:24:45 PM 51.5167 -100.1667 108° East 190 219 9,000  Level Winnipeg Center
Fri 04:25:00 PM 51.9233 -100.8526 137° Southeast  Level Estimated
Fri 04:25:45 PM 51.4833 -100.1167 137° Southeast 190 219 9,000  Level Winnipeg Center
Fri 04:26:45 PM 51.4500 -100.0333 123° Southeast 190 219 9,000 50 Level Winnipeg Center
Fri 04:27:45 PM 51.4000 -99.9667 140° Southeast 190 219 9,100  Climbing Winnipeg Center
Fri 04:28:45 PM 51.3667 -99.9167 137° Southeast 190 219 9,000  Descending Winnipeg Center
Fri 04:29:45 PM 51.3333 -99.8333 123° Southeast 190 219 9,100 50 Climbing Winnipeg Center
Fri 04:30:45 PM 51.2833 -99.7833 148° Southeast 190 219 9,100  Level Winnipeg Center
Fri 04:31:45 PM 51.2500 -99.7167 129° Southeast 200 230 9,100  Level Winnipeg Center
Fri 04:32:45 PM 51.2167 -99.6667 137° Southeast 190 219 9,100 -50 Level Winnipeg Center
Fri 04:33:45 PM 51.1833 -99.5833 123° Southeast 190 219 9,000 -50 Descending Winnipeg Center
Fri 04:34:45 PM 51.1500 -99.5333 137° Southeast 190 219 9,000 50 Level Winnipeg Center
Fri 04:35:45 PM 51.1167 -99.4500 122° Southeast 200 230 9,100 50 Climbing Winnipeg Center
Fri 04:36:45 PM 51.1000 -99.3833 112° Southeast 190 219 9,100 -50 Level Winnipeg Center
Fri 04:37:45 PM 51.0500 -99.3000 134° Southeast 190 219 9,000  Descending Winnipeg Center
Fri 04:38:45 PM 51.0167 -99.2500 137° Southeast 190 219 9,100  Climbing Winnipeg Center
Fri 04:39:45 PM 50.9833 -99.2000 137° Southeast 190 219 9,000  Descending Winnipeg Center
Fri 04:40:45 PM 50.9500 -99.1167 122° Southeast 190 219 9,100 50 Climbing Winnipeg Center
Fri 04:41:45 PM 50.9167 -99.0667 137° Southeast 190 219 9,100  Level Winnipeg Center
Fri 04:42:45 PM 50.8833 -99.0000 128° Southeast 190 219 9,100  Level Winnipeg Center
Fri 04:43:45 PM 50.8500 -98.9333 128° Southeast 190 219 9,100  Level Winnipeg Center
Fri 04:44:45 PM 50.8167 -98.8667 128° Southeast 190 219 9,100  Level Winnipeg Center
Fri 04:45:45 PM 50.7833 -98.8000 128° Southeast 190 219 9,100  Level Winnipeg Center
Fri 04:46:45 PM 50.7500 -98.7333 128° Southeast 190 219 9,100  Level Winnipeg Center
Fri 04:47:45 PM 50.7000 -98.6833 148° Southeast 190 219 9,100  Level Winnipeg Center
Fri 04:48:45 PM 50.6667 -98.6000 122° Southeast 190 219 9,100  Level Winnipeg Center
Fri 04:49:45 PM 50.6333 -98.5500 136° Southeast 190 219 9,100 -50 Level Winnipeg Center
Fri 04:50:45 PM 50.6000 -98.5000 136° Southeast 190 219 9,000 -50 Descending Winnipeg Center
Fri 04:51:45 PM 50.5667 -98.4167 122° Southeast 190 219 9,000  Level Winnipeg Center
Fri 04:52:45 PM 50.5333 -98.3667 136° Southeast 190 219 9,000  Level Winnipeg Center
Fri 04:53:45 PM 50.5000 -98.3000 128° Southeast 190 219 9,000  Level Winnipeg Center
Fri 04:54:45 PM 50.4500 -98.2333 140° Southeast 190 219 9,000  Level Winnipeg Center
Fri 04:55:45 PM 50.4500 -98.1667 90° East 190 219 9,000  Level Winnipeg Center
Fri 04:56:45 PM 50.4000 -98.1000 140° Southeast 190 219 9,000  Level Winnipeg Center
Fri 04:57:45 PM 50.3667 -98.0333 128° Southeast 190 219 9,000  Level Winnipeg Center
Fri 04:58:45 PM 50.3333 -97.9833 136° Southeast 190 219 9,000 -150 Level Winnipeg Center
Fri 04:59:45 PM 50.3000 -97.9333 136° Southeast 190 219 8,700 -400 Descending Winnipeg Center
Fri 05:00:45 PM 50.2500 -97.8833 147° Southeast 200 230 8,200 -500 Descending Winnipeg Center
Fri 05:01:45 PM 50.2000 -97.8333 147° Southeast 200 230 7,700 -500 Descending Winnipeg Center
Fri 05:02:45 PM 50.1500 -97.8000 157° South 200 230 7,200 -500 Descending Winnipeg Center
Fri 05:03:45 PM 50.1000 -97.7500 147° Southeast 200 230 6,700 -500 Descending Winnipeg Center
Fri 05:04:45 PM 50.0667 -97.7000 136° Southeast 200 230 6,200 -500 Descending Winnipeg Center
Fri 05:05:45 PM 50.0167 -97.6667 157° South 200 230 5,700 -500 Descending Winnipeg Center
Fri 05:06:45 PM 49.9667 -97.6167 147° Southeast 190 219 5,200 -450 Descending Winnipeg Center
Fri 05:07:45 PM 49.9167 -97.5667 147° Southeast 190 219 4,800 -450 Descending Winnipeg Center
Fri 05:08:45 PM 49.8833 -97.5333 147° Southeast 190 219 4,300 -550 Descending Winnipeg Center
Fri 05:09:45 PM 49.8333 -97.4833 147° Southeast 180 207 3,700 -600 Descending Winnipeg Center
Fri 05:10:45 PM 49.8000 -97.4333 136° Southeast 190 219 3,100 -350 Descending Winnipeg Center
Fri 05:11:45 PM 49.7500 -97.4000 157° South 170 196 3,000 -50 Descending Winnipeg Center
Fri 05:12:45 PM 49.7333 -97.3500 117° Southeast 160 184 3,000  Level Winnipeg Center
Fri 05:13:45 PM 49.7333 -97.2833 90° East 140 161 3,000  Level Winnipeg Center
Fri 05:14:45 PM 49.7667 -97.2500 33° Northeast 130 150 3,000 -400 Level Winnipeg Center
Fri 05:15:45 PM 49.8167 -97.2500 360° North 150 173 2,200 -800 Descending Winnipeg Center
Fri 05:16:45 PM 49.8500 -97.2500 360° North 140 161 1,400 -750 Descending Winnipeg Center
Fri 05:17:45 PM 49.8833 -97.2333 18° North 110 127 700 -700 Descending Winnipeg Center

Login

Don't have an account? Register now (free) for customized features, flight alerts, and more!